Ukiah Municipal Airport
KUKI : now visible

Airfield :











YOU CAN JOIN US ON...

 
LOGIN :

Register | Disclaimer

   EN    FR    IT 

 









Legend :    VFR   Marginal VFR   IFR   Intensive IFR   Very Intensive IFR
Visi :
Ceiling :
>= 8 km
>= 3000ft
5 to 8 km
1000 to 3000 ft
1500m to 5 km
500 to 1000 ft
800 to 1500m
200 to 500 ft
< 800m
< 200 ft
Symbols :   Thunderstorms  Fog  Heavy snow  Heavy precipitations  Wind > 20 kt






- Airport Elevation : 614 ft


KUKI - Ukiah Municipal

CURRENT METAR :
  • 150156Z AUTO 00000KT 8SM -RA BKN040 OVC046 08/06 A3002 RMK AO2 RAE0059B24 SLP164 P0008 T00780061

EXPIRED METARs :
  • 150142Z AUTO 35005KT 6SM -RA BR FEW010 SCT025 OVC038 07/06 A3003 RMK AO2 RAE0059B24 P0006 T00720056
  • 150122Z AUTO 35006KT 9SM FEW015 BKN029 OVC037 08/06 A3002 RMK AO2 RAE0059 P0000 T00830056
  • 150056Z AUTO 03005KT 9SM -RA SCT030 BKN035 OVC045 08/06 A3001 RMK AO2 SLP160 P0001 T00830056
  • 142356Z AUTO 30007KT 9SM -RA BKN047 OVC055 10/04 A3001 RMK AO2 RAB38 SLP161 P0001 60001 T01000039 10122 20083 56014

TAF KUKI
Valid from the 15 at 02:00 until the 16 at 00:00 UTC


150133Z 1502/1524 35006KT P6SM FEW015 BKN029 OVC035
FM150800 34003KT P6SM VCSH SCT035 BKN060
FM151500 34005KT P6SM SCT060



MET'MAP, your aeronautical weather chart ! - Copyright ORBIFLY December 2007 - Disclaimer

ORBIFLY MET'MAP TEAM :

Programming & Development : Alexandra Zaïnal
Concept & original design : Baudouin d'Aumeries
Assistance for programming : Marc-Olivier Méhu
Technical & hardware support : Manuel Goepfert

Contact : metmap@orbifly.com




SOURCES & CREDITS :

   NOAA       Earth
Advisory